sensor_id;sensor_type;location;lat;lon;timestamp;pressure;altitude;pressure_sealevel;temperature;humidity
53440;BME280;39333;47.044;15.080;2022-07-17T00:02:23;96978.84;;;20.53;62.29
53440;BME280;39333;47.044;15.080;2022-07-17T00:04:50;96977.00;;;20.49;62.44
53440;BME280;39333;47.044;15.080;2022-07-17T00:07:17;96980.25;;;19.93;64.94
53440;BME280;39333;47.044;15.080;2022-07-17T00:09:43;96981.22;;;19.73;65.03
53440;BME280;39333;47.044;15.080;2022-07-17T00:12:11;96985.19;;;19.81;64.34
53440;BME280;39333;47.044;15.080;2022-07-17T00:14:38;96983.78;;;19.88;64.00
53440;BME280;39333;47.044;15.080;2022-07-17T00:17:04;96979.91;;;20.00;63.76
53440;BME280;39333;47.044;15.080;2022-07-17T00:19:32;96985.06;;;19.96;63.84
53440;BME280;39333;47.044;15.080;2022-07-17T00:21:59;96983.97;;;19.97;63.82
53440;BME280;39333;47.044;15.080;2022-07-17T00:24:26;96984.75;;;19.98;63.66
53440;BME280;39333;47.044;15.080;2022-07-17T00:26:53;96991.19;;;20.02;63.33
53440;BME280;39333;47.044;15.080;2022-07-17T00:29:20;96994.69;;;20.02;62.71
53440;BME280;39333;47.044;15.080;2022-07-17T00:31:47;96993.94;;;19.97;63.62
53440;BME280;39333;47.044;15.080;2022-07-17T00:34:15;96986.97;;;19.96;63.17
53440;BME280;39333;47.044;15.080;2022-07-17T00:36:42;96991.09;;;19.83;62.95
53440;BME280;39333;47.044;15.080;2022-07-17T00:39:09;96997.06;;;19.80;63.19
53440;BME280;39333;47.044;15.080;2022-07-17T00:41:36;96986.88;;;19.72;63.48
53440;BME280;39333;47.044;15.080;2022-07-17T00:44:08;96988.75;;;19.71;63.03
53440;BME280;39333;47.044;15.080;2022-07-17T00:46:35;96986.97;;;19.62;62.98
53440;BME280;39333;47.044;15.080;2022-07-17T00:49:03;97004.47;;;19.59;62.99
53440;BME280;39333;47.044;15.080;2022-07-17T00:51:32;97002.25;;;19.66;63.05
53440;BME280;39333;47.044;15.080;2022-07-17T00:53:59;97006.00;;;19.65;63.59
53440;BME280;39333;47.044;15.080;2022-07-17T00:56:34;97000.09;;;19.68;63.02
53440;BME280;39333;47.044;15.080;2022-07-17T00:59:03;97006.91;;;19.55;63.52
53440;BME280;39333;47.044;15.080;2022-07-17T01:01:30;97002.34;;;19.51;63.00
53440;BME280;39333;47.044;15.080;2022-07-17T01:03:59;97002.09;;;19.52;63.76
53440;BME280;39333;47.044;15.080;2022-07-17T01:06:26;97013.38;;;19.54;63.51
53440;BME280;39333;47.044;15.080;2022-07-17T01:08:53;97006.69;;;19.47;63.58
53440;BME280;39333;47.044;15.080;2022-07-17T01:11:20;97013.13;;;19.51;63.48
53440;BME280;39333;47.044;15.080;2022-07-17T01:13:47;97004.50;;;19.54;63.02
53440;BME280;39333;47.044;15.080;2022-07-17T01:16:14;97009.63;;;19.50;63.17
53440;BME280;39333;47.044;15.080;2022-07-17T01:18:42;97009.13;;;19.43;63.23
53440;BME280;39333;47.044;15.080;2022-07-17T01:21:09;97004.53;;;19.44;63.34
53440;BME280;39333;47.044;15.080;2022-07-17T01:23:35;97018.03;;;19.34;63.31
53440;BME280;39333;47.044;15.080;2022-07-17T01:26:03;97009.47;;;19.32;63.28
53440;BME280;39333;47.044;15.080;2022-07-17T01:28:30;97008.16;;;19.24;63.47
53440;BME280;39333;47.044;15.080;2022-07-17T01:31:00;97011.13;;;19.22;63.49
53440;BME280;39333;47.044;15.080;2022-07-17T01:33:29;97005.75;;;19.17;63.28
53440;BME280;39333;47.044;15.080;2022-07-17T01:35:56;97012.47;;;19.20;63.73
53440;BME280;39333;47.044;15.080;2022-07-17T01:38:23;97007.16;;;19.15;63.10
53440;BME280;39333;47.044;15.080;2022-07-17T01:40:50;97013.16;;;18.92;64.40
53440;BME280;39333;47.044;15.080;2022-07-17T01:43:18;97016.97;;;18.80;64.13
53440;BME280;39333;47.044;15.080;2022-07-17T01:45:45;97019.94;;;18.79;64.89
53440;BME280;39333;47.044;15.080;2022-07-17T01:48:12;97014.31;;;18.55;65.28
53440;BME280;39333;47.044;15.080;2022-07-17T01:50:48;97016.75;;;18.57;64.59
53440;BME280;39333;47.044;15.080;2022-07-17T01:53:15;97018.91;;;18.60;64.38
53440;BME280;39333;47.044;15.080;2022-07-17T01:55:42;97029.63;;;18.54;64.52
53440;BME280;39333;47.044;15.080;2022-07-17T01:58:09;97025.59;;;18.57;64.71
53440;BME280;39333;47.044;15.080;2022-07-17T02:00:36;97026.97;;;18.65;64.07
53440;BME280;39333;47.044;15.080;2022-07-17T02:03:02;97035.00;;;18.70;63.96
53440;BME280;39333;47.044;15.080;2022-07-17T02:05:29;97032.88;;;18.62;64.55
53440;BME280;39333;47.044;15.080;2022-07-17T02:07:56;97021.94;;;18.17;65.90
53440;BME280;39333;47.044;15.080;2022-07-17T02:10:23;97029.69;;;18.19;65.75
53440;BME280;39333;47.044;15.080;2022-07-17T02:12:49;97021.66;;;18.24;65.24
53440;BME280;39333;47.044;15.080;2022-07-17T02:15:16;97029.41;;;18.41;65.00
53440;BME280;39333;47.044;15.080;2022-07-17T02:17:43;97032.31;;;18.54;64.30
53440;BME280;39333;47.044;15.080;2022-07-17T02:20:12;97031.78;;;18.58;63.70
53440;BME280;39333;47.044;15.080;2022-07-17T02:22:39;97039.56;;;18.54;63.88
53440;BME280;39333;47.044;15.080;2022-07-17T02:25:08;97039.84;;;18.52;63.14
53440;BME280;39333;47.044;15.080;2022-07-17T02:27:36;97047.13;;;18.42;63.73
53440;BME280;39333;47.044;15.080;2022-07-17T02:30:06;97041.75;;;18.42;63.86
53440;BME280;39333;47.044;15.080;2022-07-17T02:32:33;97044.19;;;18.28;64.13
53440;BME280;39333;47.044;15.080;2022-07-17T02:35:00;97051.44;;;18.23;63.98
53440;BME280;39333;47.044;15.080;2022-07-17T02:37:27;97047.94;;;18.27;64.36
53440;BME280;39333;47.044;15.080;2022-07-17T02:39:53;97052.25;;;18.28;64.35
53440;BME280;39333;47.044;15.080;2022-07-17T02:42:23;97056.53;;;18.34;63.79
53440;BME280;39333;47.044;15.080;2022-07-17T02:44:50;97057.06;;;18.36;63.97
53440;BME280;39333;47.044;15.080;2022-07-17T02:47:22;97056.28;;;18.31;63.59
53440;BME280;39333;47.044;15.080;2022-07-17T02:49:50;97067.53;;;18.28;63.82
53440;BME280;39333;47.044;15.080;2022-07-17T02:52:17;97062.97;;;18.28;64.41
53440;BME280;39333;47.044;15.080;2022-07-17T02:54:44;97063.78;;;18.29;63.87
53440;BME280;39333;47.044;15.080;2022-07-17T02:57:11;97062.72;;;18.25;64.02
53440;BME280;39333;47.044;15.080;2022-07-17T02:59:39;97076.66;;;18.22;64.41
53440;BME280;39333;47.044;15.080;2022-07-17T03:02:06;97070.50;;;18.21;64.38
53440;BME280;39333;47.044;15.080;2022-07-17T03:04:32;97078.53;;;18.21;64.28
53440;BME280;39333;47.044;15.080;2022-07-17T03:06:59;97066.75;;;18.22;64.95
53440;BME280;39333;47.044;15.080;2022-07-17T03:09:26;97062.97;;;18.23;64.88
53440;BME280;39333;47.044;15.080;2022-07-17T03:11:53;97064.84;;;18.23;64.93
53440;BME280;39333;47.044;15.080;2022-07-17T03:14:20;97069.97;;;18.29;64.66
53440;BME280;39333;47.044;15.080;2022-07-17T03:16:47;97073.19;;;18.21;65.29
53440;BME280;39333;47.044;15.080;2022-07-17T03:19:14;97074.25;;;18.20;65.83
53440;BME280;39333;47.044;15.080;2022-07-17T03:21:40;97071.31;;;17.96;66.38
53440;BME280;39333;47.044;15.080;2022-07-17T03:24:08;97074.16;;;17.44;67.83
53440;BME280;39333;47.044;15.080;2022-07-17T03:26:34;97087.38;;;17.71;67.39
53440;BME280;39333;47.044;15.080;2022-07-17T03:29:01;97082.84;;;17.87;65.50
53440;BME280;39333;47.044;15.080;2022-07-17T03:31:28;97083.66;;;17.97;66.13
53440;BME280;39333;47.044;15.080;2022-07-17T03:33:55;97093.84;;;18.10;65.44
53440;BME280;39333;47.044;15.080;2022-07-17T03:36:23;97090.91;;;18.12;64.97
53440;BME280;39333;47.044;15.080;2022-07-17T03:38:50;97100.28;;;18.04;65.30
53440;BME280;39333;47.044;15.080;2022-07-17T03:41:17;97104.84;;;18.04;65.25
53440;BME280;39333;47.044;15.080;2022-07-17T03:43:43;97106.47;;;18.10;65.11
53440;BME280;39333;47.044;15.080;2022-07-17T03:46:10;97099.50;;;18.14;64.80
53440;BME280;39333;47.044;15.080;2022-07-17T03:48:37;97111.31;;;18.13;64.68
53440;BME280;39333;47.044;15.080;2022-07-17T03:51:05;97114.25;;;18.16;64.47
53440;BME280;39333;47.044;15.080;2022-07-17T03:53:31;97123.38;;;18.26;64.27
53440;BME280;39333;47.044;15.080;2022-07-17T03:55:58;97119.63;;;18.27;63.75
53440;BME280;39333;47.044;15.080;2022-07-17T03:58:25;97120.44;;;18.27;63.28
53440;BME280;39333;47.044;15.080;2022-07-17T04:00:52;97129.28;;;18.23;63.81
53440;BME280;39333;47.044;15.080;2022-07-17T04:03:19;97128.75;;;18.15;63.87
53440;BME280;39333;47.044;15.080;2022-07-17T04:05:46;97129.28;;;18.12;63.92
53440;BME280;39333;47.044;15.080;2022-07-17T04:08:12;97124.69;;;18.03;63.59
53440;BME280;39333;47.044;15.080;2022-07-17T04:10:39;97123.88;;;18.02;64.83
53440;BME280;39333;47.044;15.080;2022-07-17T04:13:06;97126.84;;;18.06;64.61
53440;BME280;39333;47.044;15.080;2022-07-17T04:15:33;97127.66;;;18.11;64.10
53440;BME280;39333;47.044;15.080;2022-07-17T04:18:23;97124.19;;;18.16;63.96
53440;BME280;39333;47.044;15.080;2022-07-17T04:20:52;97139.22;;;18.12;63.96
53440;BME280;39333;47.044;15.080;2022-07-17T04:23:19;97133.56;;;18.08;63.94
53440;BME280;39333;47.044;15.080;2022-07-17T04:25:46;97139.75;;;18.09;64.30
53440;BME280;39333;47.044;15.080;2022-07-17T04:28:13;97141.09;;;18.16;63.55
53440;BME280;39333;47.044;15.080;2022-07-17T04:30:41;97147.28;;;18.27;63.17
53440;BME280;39333;47.044;15.080;2022-07-17T04:33:09;97145.66;;;18.26;63.07
53440;BME280;39333;47.044;15.080;2022-07-17T04:35:36;97154.78;;;18.25;63.24
53440;BME280;39333;47.044;15.080;2022-07-17T04:38:04;97156.13;;;18.33;63.80
53440;BME280;39333;47.044;15.080;2022-07-17T04:40:33;97152.63;;;18.37;63.50
53440;BME280;39333;47.044;15.080;2022-07-17T04:43:00;97150.47;;;18.39;63.77
53440;BME280;39333;47.044;15.080;2022-07-17T04:45:27;97155.84;;;18.39;62.41
53440;BME280;39333;47.044;15.080;2022-07-17T04:47:54;97149.41;;;18.45;63.06
53440;BME280;39333;47.044;15.080;2022-07-17T04:50:21;97145.94;;;18.50;63.07
53440;BME280;39333;47.044;15.080;2022-07-17T04:52:49;97148.38;;;18.62;62.90
53440;BME280;39333;47.044;15.080;2022-07-17T04:55:16;97152.41;;;18.64;62.66
53440;BME280;39333;47.044;15.080;2022-07-17T04:57:43;97169.59;;;18.63;63.04
53440;BME280;39333;47.044;15.080;2022-07-17T05:00:11;97167.41;;;18.50;63.19
53440;BME280;39333;47.044;15.080;2022-07-17T05:02:38;97166.63;;;18.60;63.18
53440;BME280;39333;47.044;15.080;2022-07-17T05:05:05;97166.06;;;18.73;62.53
53440;BME280;39333;47.044;15.080;2022-07-17T05:07:32;97164.69;;;18.91;62.80
53440;BME280;39333;47.044;15.080;2022-07-17T05:09:58;97165.47;;;19.06;61.22
53440;BME280;39333;47.044;15.080;2022-07-17T05:12:25;97171.88;;;19.20;61.07
53440;BME280;39333;47.044;15.080;2022-07-17T05:14:52;97166.19;;;19.37;60.71
53440;BME280;39333;47.044;15.080;2022-07-17T05:17:19;97169.13;;;19.46;59.85
53440;BME280;39333;47.044;15.080;2022-07-17T05:19:45;97174.47;;;19.56;59.74
53440;BME280;39333;47.044;15.080;2022-07-17T05:22:13;97173.97;;;19.39;60.21
53440;BME280;39333;47.044;15.080;2022-07-17T05:24:39;97168.38;;;19.30;61.13
53440;BME280;39333;47.044;15.080;2022-07-17T05:27:06;97172.88;;;19.55;60.17
53440;BME280;39333;47.044;15.080;2022-07-17T05:29:33;97172.81;;;19.65;59.54
53440;BME280;39333;47.044;15.080;2022-07-17T05:32:00;97180.28;;;19.78;59.29
53440;BME280;39333;47.044;15.080;2022-07-17T05:34:26;97177.59;;;19.78;58.78
53440;BME280;39333;47.044;15.080;2022-07-17T05:36:53;97185.03;;;19.97;60.02
53440;BME280;39333;47.044;15.080;2022-07-17T05:39:20;97188.84;;;19.90;58.17
53440;BME280;39333;47.044;15.080;2022-07-17T05:41:47;97190.34;;;20.07;59.08
53440;BME280;39333;47.044;15.080;2022-07-17T05:44:13;97188.38;;;20.17;57.48
53440;BME280;39333;47.044;15.080;2022-07-17T05:46:40;97199.59;;;20.30;58.24
53440;BME280;39333;47.044;15.080;2022-07-17T05:49:07;97202.72;;;20.13;57.68
53440;BME280;39333;47.044;15.080;2022-07-17T05:51:34;97206.44;;;20.17;58.71
53440;BME280;39333;47.044;15.080;2022-07-17T05:54:00;97196.63;;;20.31;57.64
53440;BME280;39333;47.044;15.080;2022-07-17T05:56:27;97197.72;;;19.91;59.24
53440;BME280;39333;47.044;15.080;2022-07-17T05:58:54;97194.16;;;20.01;59.23
53440;BME280;39333;47.044;15.080;2022-07-17T06:01:21;97202.19;;;20.11;58.75
53440;BME280;39333;47.044;15.080;2022-07-17T06:03:48;97197.38;;;19.98;58.58
53440;BME280;39333;47.044;15.080;2022-07-17T06:06:15;97196.50;;;19.63;58.43
53440;BME280;39333;47.044;15.080;2022-07-17T06:08:42;97187.41;;;19.34;58.41
53440;BME280;39333;47.044;15.080;2022-07-17T06:11:09;97195.44;;;19.49;59.50
53440;BME280;39333;47.044;15.080;2022-07-17T06:13:37;97194.41;;;19.45;58.61
53440;BME280;39333;47.044;15.080;2022-07-17T06:16:04;97194.94;;;19.42;59.13
53440;BME280;39333;47.044;15.080;2022-07-17T06:18:31;97198.41;;;19.63;59.06
53440;BME280;39333;47.044;15.080;2022-07-17T06:20:58;97185.28;;;19.36;59.83
53440;BME280;39333;47.044;15.080;2022-07-17T06:23:25;97198.44;;;19.32;60.81
53440;BME280;39333;47.044;15.080;2022-07-17T06:25:52;97187.41;;;19.34;60.55
53440;BME280;39333;47.044;15.080;2022-07-17T06:28:19;97198.13;;;19.59;60.26
53440;BME280;39333;47.044;15.080;2022-07-17T06:30:46;97200.69;;;19.89;59.70
53440;BME280;39333;47.044;15.080;2022-07-17T06:33:13;97199.34;;;20.31;57.53
53440;BME280;39333;47.044;15.080;2022-07-17T06:35:40;97199.56;;;20.45;58.09
53440;BME280;39333;47.044;15.080;2022-07-17T06:38:11;97202.81;;;20.76;56.21
53440;BME280;39333;47.044;15.080;2022-07-17T06:40:38;97192.72;;;21.15;54.52
53440;BME280;39333;47.044;15.080;2022-07-17T06:43:06;97203.00;;;21.61;55.00
53440;BME280;39333;47.044;15.080;2022-07-17T06:45:33;97205.34;;;21.91;53.12
53440;BME280;39333;47.044;15.080;2022-07-17T06:48:00;97201.06;;;22.28;52.86
53440;BME280;39333;47.044;15.080;2022-07-17T06:50:27;97207.41;;;22.37;51.38
53440;BME280;39333;47.044;15.080;2022-07-17T06:52:54;97214.56;;;22.47;52.11
53440;BME280;39333;47.044;15.080;2022-07-17T06:55:21;97214.78;;;22.50;50.82
53440;BME280;39333;47.044;15.080;2022-07-17T06:57:49;97207.81;;;22.63;51.31
53440;BME280;39333;47.044;15.080;2022-07-17T07:00:16;97209.84;;;22.71;51.77
53440;BME280;39333;47.044;15.080;2022-07-17T07:02:45;97194.22;;;22.68;50.69
53440;BME280;39333;47.044;15.080;2022-07-17T07:05:12;97202.09;;;22.83;51.21
53440;BME280;39333;47.044;15.080;2022-07-17T07:07:39;97201.13;;;22.93;50.53
53440;BME280;39333;47.044;15.080;2022-07-17T07:10:06;97205.34;;;22.99;51.08
53440;BME280;39333;47.044;15.080;2022-07-17T07:12:33;97204.75;;;23.02;50.34
53440;BME280;39333;47.044;15.080;2022-07-17T07:15:01;97208.16;;;23.08;49.43
53440;BME280;39333;47.044;15.080;2022-07-17T07:17:35;97209.56;;;23.05;49.94
53440;BME280;39333;47.044;15.080;2022-07-17T07:20:05;97203.88;;;23.20;50.48
53440;BME280;39333;47.044;15.080;2022-07-17T07:22:32;97198.22;;;23.63;46.74
53440;BME280;39333;47.044;15.080;2022-07-17T07:25:00;97191.34;;;23.24;45.79
53440;BME280;39333;47.044;15.080;2022-07-17T07:27:27;97195.63;;;22.98;47.93
53440;BME280;39333;47.044;15.080;2022-07-17T07:29:54;97187.25;;;22.48;47.58
53440;BME280;39333;47.044;15.080;2022-07-17T07:32:21;97199.66;;;22.30;47.56
53440;BME280;39333;47.044;15.080;2022-07-17T07:34:48;97185.97;;;22.59;48.39
53440;BME280;39333;47.044;15.080;2022-07-17T07:37:15;97189.91;;;22.67;48.14
53440;BME280;39333;47.044;15.080;2022-07-17T07:39:42;97192.03;;;23.02;47.48
53440;BME280;39333;47.044;15.080;2022-07-17T07:42:11;97194.09;;;23.65;49.57
53440;BME280;39333;47.044;15.080;2022-07-17T07:44:37;97191.16;;;23.89;46.41
53440;BME280;39333;47.044;15.080;2022-07-17T07:47:05;97198.22;;;24.13;47.86
53440;BME280;39333;47.044;15.080;2022-07-17T07:49:32;97189.38;;;23.71;47.54
53440;BME280;39333;47.044;15.080;2022-07-17T07:52:05;97189.94;;;23.95;45.64
53440;BME280;39333;47.044;15.080;2022-07-17T07:54:33;97186.91;;;24.47;45.52
53440;BME280;39333;47.044;15.080;2022-07-17T07:57:00;97182.25;;;23.75;49.01
53440;BME280;39333;47.044;15.080;2022-07-17T07:59:28;97184.81;;;24.66;46.93
53440;BME280;39333;47.044;15.080;2022-07-17T08:02:00;97176.09;;;25.31;44.38
53440;BME280;39333;47.044;15.080;2022-07-17T08:04:27;97171.94;;;25.73;43.06
53440;BME280;39333;47.044;15.080;2022-07-17T08:06:54;97175.91;;;25.67;40.61
53440;BME280;39333;47.044;15.080;2022-07-17T08:09:21;97178.28;;;25.20;42.02
53440;BME280;39333;47.044;15.080;2022-07-17T08:11:48;97176.13;;;25.79;43.29
53440;BME280;39333;47.044;15.080;2022-07-17T08:14:15;97175.50;;;26.17;40.35
53440;BME280;39333;47.044;15.080;2022-07-17T08:16:43;97173.63;;;26.34;42.41
53440;BME280;39333;47.044;15.080;2022-07-17T08:19:10;97174.09;;;26.71;41.25
53440;BME280;39333;47.044;15.080;2022-07-17T08:21:38;97174.31;;;27.12;40.65
53440;BME280;39333;47.044;15.080;2022-07-17T08:24:05;97170.72;;;27.38;39.62
53440;BME280;39333;47.044;15.080;2022-07-17T08:26:32;97172.09;;;27.44;40.56
53440;BME280;39333;47.044;15.080;2022-07-17T08:28:59;97170.63;;;27.55;39.88
53440;BME280;39333;47.044;15.080;2022-07-17T08:31:26;97173.13;;;27.39;37.68
53440;BME280;39333;47.044;15.080;2022-07-17T08:33:53;97178.50;;;27.48;41.60
53440;BME280;39333;47.044;15.080;2022-07-17T08:36:20;97174.72;;;26.94;42.06
53440;BME280;39333;47.044;15.080;2022-07-17T08:38:48;97182.06;;;26.93;37.83
53440;BME280;39333;47.044;15.080;2022-07-17T08:41:15;97180.00;;;26.21;40.43
53440;BME280;39333;47.044;15.080;2022-07-17T08:43:44;97188.78;;;26.87;42.20
53440;BME280;39333;47.044;15.080;2022-07-17T08:46:12;97180.00;;;26.73;35.34
53440;BME280;39333;47.044;15.080;2022-07-17T08:48:40;97182.69;;;26.90;42.57
53440;BME280;39333;47.044;15.080;2022-07-17T08:51:09;97186.50;;;25.86;38.81
53440;BME280;39333;47.044;15.080;2022-07-17T08:53:37;97189.91;;;26.26;38.76
53440;BME280;39333;47.044;15.080;2022-07-17T08:56:04;97183.50;;;26.22;40.82
53440;BME280;39333;47.044;15.080;2022-07-17T08:58:31;97172.44;;;25.84;42.44
53440;BME280;39333;47.044;15.080;2022-07-17T09:00:58;97193.91;;;26.89;40.53
53440;BME280;39333;47.044;15.080;2022-07-17T09:03:25;97190.41;;;27.35;39.73
53440;BME280;39333;47.044;15.080;2022-07-17T09:05:54;97180.91;;;27.58;35.91
53440;BME280;39333;47.044;15.080;2022-07-17T09:08:23;97178.72;;;26.10;38.43
53440;BME280;39333;47.044;15.080;2022-07-17T09:10:52;97184.19;;;26.36;39.58
53440;BME280;39333;47.044;15.080;2022-07-17T09:13:28;97183.59;;;27.20;38.27
53440;BME280;39333;47.044;15.080;2022-07-17T09:15:59;97181.44;;;28.02;39.38
53440;BME280;39333;47.044;15.080;2022-07-17T09:18:26;97183.56;;;28.59;37.19
53440;BME280;39333;47.044;15.080;2022-07-17T09:20:57;97185.59;;;29.03;35.91
53440;BME280;39333;47.044;15.080;2022-07-17T09:23:26;97190.25;;;29.03;33.35
53440;BME280;39333;47.044;15.080;2022-07-17T09:25:55;97188.34;;;29.28;37.45
53440;BME280;39333;47.044;15.080;2022-07-17T09:28:23;97183.16;;;29.83;39.98
53440;BME280;39333;47.044;15.080;2022-07-17T09:30:53;97184.16;;;30.15;35.98
53440;BME280;39333;47.044;15.080;2022-07-17T09:33:23;97188.88;;;30.03;37.52
53440;BME280;39333;47.044;15.080;2022-07-17T09:35:53;97180.56;;;29.63;32.25
53440;BME280;39333;47.044;15.080;2022-07-17T09:38:32;97187.94;;;29.86;35.85
53440;BME280;39333;47.044;15.080;2022-07-17T09:43:41;97180.31;;;29.55;34.22
53440;BME280;39333;47.044;15.080;2022-07-17T09:46:23;97176.66;;;29.39;38.83
53440;BME280;39333;47.044;15.080;2022-07-17T09:48:58;97178.69;;;29.30;35.39
53440;BME280;39333;47.044;15.080;2022-07-17T09:53:59;97177.22;;;29.33;33.75
53440;BME280;39333;47.044;15.080;2022-07-17T09:56:29;97174.84;;;29.43;33.19
53440;BME280;39333;47.044;15.080;2022-07-17T09:59:04;97173.28;;;28.97;40.75
53440;BME280;39333;47.044;15.080;2022-07-17T10:01:33;97176.28;;;29.29;34.88
53440;BME280;39333;47.044;15.080;2022-07-17T10:04:01;97164.72;;;29.80;37.97
53440;BME280;39333;47.044;15.080;2022-07-17T10:06:29;97162.22;;;30.00;36.67
53440;BME280;39333;47.044;15.080;2022-07-17T10:08:57;97159.00;;;28.59;33.52
53440;BME280;39333;47.044;15.080;2022-07-17T10:11:26;97163.97;;;28.44;34.96
53440;BME280;39333;47.044;15.080;2022-07-17T10:13:56;97161.00;;;28.70;34.39
53440;BME280;39333;47.044;15.080;2022-07-17T10:16:30;97162.16;;;27.86;39.06
53440;BME280;39333;47.044;15.080;2022-07-17T10:18:59;97153.97;;;27.86;38.78
53440;BME280;39333;47.044;15.080;2022-07-17T10:21:30;97155.88;;;28.69;42.38
53440;BME280;39333;47.044;15.080;2022-07-17T10:26:39;97140.94;;;30.21;34.67
53440;BME280;39333;47.044;15.080;2022-07-17T10:29:08;97148.03;;;30.78;35.87
53440;BME280;39333;47.044;15.080;2022-07-17T10:31:35;97146.50;;;31.08;31.86
53440;BME280;39333;47.044;15.080;2022-07-17T10:34:04;97141.13;;;31.43;30.66
53440;BME280;39333;47.044;15.080;2022-07-17T10:36:34;97136.88;;;31.61;32.33
53440;BME280;39333;47.044;15.080;2022-07-17T10:39:17;97131.31;;;31.74;30.87
53440;BME280;39333;47.044;15.080;2022-07-17T10:41:58;97146.94;;;31.57;35.19
53440;BME280;39333;47.044;15.080;2022-07-17T10:44:30;97126.88;;;31.53;32.52
53440;BME280;39333;47.044;15.080;2022-07-17T10:46:58;97131.50;;;31.49;32.92
53440;BME280;39333;47.044;15.080;2022-07-17T10:49:26;97134.31;;;31.69;32.95
53440;BME280;39333;47.044;15.080;2022-07-17T10:51:53;97132.63;;;31.80;31.27
53440;BME280;39333;47.044;15.080;2022-07-17T10:54:20;97129.78;;;32.11;32.84
53440;BME280;39333;47.044;15.080;2022-07-17T10:57:01;97128.44;;;32.40;30.98
53440;BME280;39333;47.044;15.080;2022-07-17T10:59:29;97126.41;;;32.56;32.68
53440;BME280;39333;47.044;15.080;2022-07-17T11:01:57;97130.47;;;32.62;32.08
53440;BME280;39333;47.044;15.080;2022-07-17T11:04:24;97121.78;;;32.60;33.08
53440;BME280;39333;47.044;15.080;2022-07-17T11:06:51;97117.53;;;32.24;34.69
53440;BME280;39333;47.044;15.080;2022-07-17T11:09:18;97113.13;;;32.58;30.92
53440;BME280;39333;47.044;15.080;2022-07-17T11:11:48;97111.47;;;32.54;31.73
53440;BME280;39333;47.044;15.080;2022-07-17T11:14:18;97112.34;;;32.19;32.37
53440;BME280;39333;47.044;15.080;2022-07-17T11:16:54;97113.13;;;32.20;36.29
53440;BME280;39333;47.044;15.080;2022-07-17T11:21:54;97102.13;;;30.87;32.82
53440;BME280;39333;47.044;15.080;2022-07-17T11:24:21;97097.38;;;31.47;32.35
53440;BME280;39333;47.044;15.080;2022-07-17T11:26:51;97095.13;;;32.03;32.61
53440;BME280;39333;47.044;15.080;2022-07-17T11:29:18;97092.88;;;31.23;33.74
53440;BME280;39333;47.044;15.080;2022-07-17T11:31:45;97092.13;;;30.63;37.32
53440;BME280;39333;47.044;15.080;2022-07-17T11:34:12;97088.97;;;31.08;31.14
53440;BME280;39333;47.044;15.080;2022-07-17T11:36:41;97084.84;;;30.83;37.23
53440;BME280;39333;47.044;15.080;2022-07-17T11:39:14;97087.97;;;31.63;34.25
53440;BME280;39333;47.044;15.080;2022-07-17T11:41:43;97082.00;;;32.12;34.64
53440;BME280;39333;47.044;15.080;2022-07-17T11:44:16;97077.16;;;32.44;32.11
53440;BME280;39333;47.044;15.080;2022-07-17T11:46:48;97084.28;;;32.49;31.92
53440;BME280;39333;47.044;15.080;2022-07-17T11:49:31;97076.88;;;32.91;31.02
53440;BME280;39333;47.044;15.080;2022-07-17T11:52:07;97078.22;;;32.78;31.75
53440;BME280;39333;47.044;15.080;2022-07-17T11:54:49;97077.22;;;33.13;31.66
53440;BME280;39333;47.044;15.080;2022-07-17T11:57:17;97079.22;;;33.16;31.31
53440;BME280;39333;47.044;15.080;2022-07-17T11:59:45;97065.75;;;33.07;30.19
53440;BME280;39333;47.044;15.080;2022-07-17T12:04:55;97074.91;;;31.92;33.73
53440;BME280;39333;47.044;15.080;2022-07-17T12:07:24;97067.91;;;31.59;33.77
53440;BME280;39333;47.044;15.080;2022-07-17T12:09:52;97069.56;;;30.98;37.52
53440;BME280;39333;47.044;15.080;2022-07-17T12:12:24;97077.09;;;32.21;33.74
53440;BME280;39333;47.044;15.080;2022-07-17T12:14:56;97069.88;;;31.43;31.20
53440;BME280;39333;47.044;15.080;2022-07-17T12:17:25;97062.56;;;32.02;34.41
53440;BME280;39333;47.044;15.080;2022-07-17T12:20:04;97063.13;;;31.56;31.87
53440;BME280;39333;47.044;15.080;2022-07-17T12:22:46;97059.41;;;30.82;34.91
53440;BME280;39333;47.044;15.080;2022-07-17T12:25:28;97058.59;;;30.38;35.35
53440;BME280;39333;47.044;15.080;2022-07-17T12:27:55;97056.56;;;30.07;34.93
53440;BME280;39333;47.044;15.080;2022-07-17T12:30:22;97054.25;;;28.72;34.95
53440;BME280;39333;47.044;15.080;2022-07-17T12:32:49;97052.56;;;29.65;39.14
53440;BME280;39333;47.044;15.080;2022-07-17T12:35:16;97039.16;;;31.03;34.94
53440;BME280;39333;47.044;15.080;2022-07-17T12:37:43;97044.00;;;31.41;33.85
53440;BME280;39333;47.044;15.080;2022-07-17T12:40:10;97049.34;;;31.88;34.04
53440;BME280;39333;47.044;15.080;2022-07-17T12:42:42;97039.19;;;32.69;32.86
53440;BME280;39333;47.044;15.080;2022-07-17T12:45:09;97043.06;;;33.14;34.40
53440;BME280;39333;47.044;15.080;2022-07-17T12:47:36;97032.69;;;32.35;32.48
53440;BME280;39333;47.044;15.080;2022-07-17T12:50:03;97034.28;;;31.97;31.99
53440;BME280;39333;47.044;15.080;2022-07-17T12:52:31;97024.66;;;32.46;34.58
53440;BME280;39333;47.044;15.080;2022-07-17T12:54:58;97035.00;;;32.33;29.68
53440;BME280;39333;47.044;15.080;2022-07-17T12:57:26;97035.31;;;32.51;32.49
53440;BME280;39333;47.044;15.080;2022-07-17T12:59:53;97025.75;;;32.64;34.80
53440;BME280;39333;47.044;15.080;2022-07-17T13:02:20;97020.97;;;33.29;31.91
53440;BME280;39333;47.044;15.080;2022-07-17T13:04:50;97023.53;;;33.19;31.55
53440;BME280;39333;47.044;15.080;2022-07-17T13:07:16;97018.41;;;33.40;33.12
53440;BME280;39333;47.044;15.080;2022-07-17T13:09:43;97014.50;;;33.71;30.69